This is the latest recevied weather packets stored in our database for station/object AD4WX-13. If no packets are shown the sender has not sent any weather packets the latest 10 day(s).
| Time | Temp. | Humidity | Pressure | Rain* | Wind** | Luminosity | Snow |
|---|---|---|---|---|---|---|---|
| 1777954361 | 13.89° C | 82% | 1009.2 hPa | 0 mm | - | 0 W/m² | - |
| 1777951885 | 15° C | 77% | 1009 hPa | 0 mm | - | 0 W/m² | - |
| 1777946378 | 18.33° C | 68% | 1008.4 hPa | 0 mm | - | 0 W/m² | - |
| 1777942660 | 21.67° C | 54% | 1008.3 hPa | 0 mm | - | 0 W/m² | - |
| 1777938353 | 24.44° C | 42% | 1008.1 hPa | 0 mm | - | 153 W/m² | - |
| 1777937683 | 24.44° C | 41% | 1008.2 hPa | 0 mm | - | 183 W/m² | - |
| 1777927388 | 26.67° C | 38% | 1008.5 hPa | 0 mm | - | 139 W/m² | - |
| 1777925500 | 27.22° C | 37% | 1009.1 hPa | 0 mm | - | 846 W/m² | - |
| 1777923607 | 27.22° C | 38% | 1009.6 hPa | 0 mm | - | 956 W/m² | - |
| 1777907225 | 21.67° C | 58% | 1012.6 hPa | 0 mm | - | 708 W/m² | - |
| 1777899887 | 16.11° C | 72% | 1012.9 hPa | 0 mm | - | 341 W/m² | - |
| 1777897405 | 11.67° C | 90% | 1012.7 hPa | 0 mm | - | 137 W/m² | - |
| 1777890055 | 9.44° C | 91% | 1012.3 hPa | 0 mm | - | 0 W/m² | - |
| 1777886381 | 8.33° C | 91% | 1012.4 hPa | 0 mm | - | 0 W/m² | - |
| 1777885718 | 8.33° C | 91% | 1012.5 hPa | 0 mm | - | 0 W/m² | - |
| 1777884406 | 7.78° C | 91% | 1012.6 hPa | 0 mm | - | 0 W/m² | - |
| 1777880109 | 8.33° C | 91% | 1012.9 hPa | 0 mm | - | 0 W/m² | - |
| 1777870341 | 9.44° C | 88% | 1013.8 hPa | 0 mm | - | 0 W/m² | - |
| 1777867815 | 9.44° C | 87% | 1014 hPa | 0 mm | - | 0 W/m² | - |
| 1777865363 | 10° C | 87% | 1014.2 hPa | 0 mm | - | 0 W/m² | - |
| 1777861045 | 11.11° C | 80% | 1014.3 hPa | 0 mm | - | 0 W/m² | - |
| 1777858537 | 12.78° C | 74% | 1014.1 hPa | 0 mm | - | 0 W/m² | - |
| 1777857264 | 13.89° C | 70% | 1014.1 hPa | 0 mm | - | 0 W/m² | - |
| 1777854238 | 17.22° C | 57% | 1013.9 hPa | 0 mm | - | 14 W/m² | - |
| 1777852328 | 19.44° C | 46% | 1014.2 hPa | 0 mm | - | 130 W/m² | - |
* Rain latest hour (hover to see other rain measurements)
** Current wind speed in m/s (hover to see current wind gust speed)